Time;durP1;ratioP1;P1;durP2;ratioP2;P2;SDS_P1;SDS_P2;PMS_P1;PMS_P2;Temp;Humidity;BMP_temperature;BMP_pressure;BME280_temperature;BME280_humidity;BME280_pressure;Samples;Min_cycle;Max_cycle;Signal;HPM_P1;HPM_P2
2023/12/24 00:01:43;;;;;;;1.05;0.30;;;;;;;9.79;97.42;99611.28;10339148;28;20050;-62
2023/12/24 00:06:44;;;;;;;;;;;;;;;9.80;96.78;99597.03;10339161;28;20810;-62
2023/12/24 00:11:46;;;;;;;0.65;0.10;;;;;;;9.83;96.72;99594.97;10345945;28;19936;-63
2023/12/24 00:16:48;;;;;;;3.40;0.32;;;;;;;9.78;95.31;99581.22;10339937;28;20132;-63
2023/12/24 00:21:50;;;;;;;0.63;0.20;;;;;;;9.86;94.70;99583.22;10337966;28;20049;-61
2023/12/24 00:26:52;;;;;;;0.98;0.10;;;;;;;9.80;93.10;99573.94;10344052;28;20053;-61
2023/12/24 00:31:53;;;;;;;1.00;0.13;;;;;;;9.78;93.06;99564.44;10340014;28;20048;-63
2023/12/24 00:36:55;;;;;;;1.25;0.10;;;;;;;9.86;92.44;99561.94;10353102;28;20132;-62
2023/12/24 00:41:56;;;;;;;0.80;0.32;;;;;;;9.86;92.18;99578.75;10339984;28;20675;-61
2023/12/24 00:46:58;;;;;;;0.47;0.10;;;;;;;9.94;92.47;99577.22;10340400;28;20060;-63
2023/12/24 00:51:59;;;;;;;0.68;0.20;;;;;;;9.94;92.18;99596.69;10342181;28;20056;-62
2023/12/24 00:57:01;;;;;;;0.60;0.25;;;;;;;9.77;91.69;99574.22;10341106;28;20059;-61
2023/12/24 01:02:02;;;;;;;0.90;0.40;;;;;;;10.00;91.87;99606.78;10354659;28;20058;-61
2023/12/24 01:07:03;;;;;;;0.20;0.10;;;;;;;10.02;91.61;99619.94;10338732;28;20715;-62
2023/12/24 01:12:06;;;;;;;0.40;0.10;;;;;;;10.05;91.41;99609.03;10337449;28;20156;-61
2023/12/24 01:17:07;;;;;;;0.85;0.20;;;;;;;10.05;91.12;99612.50;10346485;28;20073;-62
2023/12/24 01:22:09;;;;;;;0.40;0.30;;;;;;;10.10;90.99;99614.75;10334414;28;20053;-62
2023/12/24 01:27:10;;;;;;;1.10;0.20;;;;;;;10.14;90.67;99624.16;10335403;28;20064;-62
2023/12/24 01:32:13;;;;;;;0.70;0.10;;;;;;;10.21;90.69;99632.44;10344044;28;20783;-62
2023/12/24 01:37:15;;;;;;;1.90;0.25;;;;;;;10.25;89.94;99637.34;10339739;28;20290;-62
2023/12/24 01:42:18;;;;;;;1.58;0.45;;;;;;;10.21;89.55;99646.56;10345100;28;20101;-61
2023/12/24 01:47:20;;;;;;;1.25;0.40;;;;;;;10.23;89.16;99644.59;10349213;28;20061;-61
2023/12/24 01:52:22;;;;;;;2.05;0.20;;;;;;;10.17;89.08;99634.53;10345129;28;20050;-63
2023/12/24 01:57:24;;;;;;;0.45;0.10;;;;;;;10.22;88.97;99615.50;10344335;28;20049;-60
2023/12/24 02:02:27;;;;;;;0.38;0.20;;;;;;;10.32;89.36;99631.47;10342677;28;20125;-60
2023/12/24 02:07:31;;;;;;;1.52;0.10;;;;;;;10.29;89.11;99639.75;10340151;28;20050;-62
2023/12/24 02:12:35;;;;;;;2.25;0.13;;;;;;;10.24;88.99;99619.69;10342633;28;20255;-62
2023/12/24 02:17:38;;;;;;;0.60;0.10;;;;;;;10.29;89.21;99626.44;10341456;28;20069;-62
2023/12/24 02:22:39;;;;;;;0.60;0.10;;;;;;;10.32;89.07;99636.81;10337983;28;20050;-61
2023/12/24 02:27:49;;;;;;;0.70;0.10;;;;;;;10.31;89.17;99627.13;10340158;28;20054;-62
2023/12/24 02:32:55;;;;;;;0.68;0.20;;;;;;;10.36;89.53;99627.59;10358257;28;20115;-63
2023/12/24 02:37:57;;;;;;;0.20;0.10;;;;;;;10.32;89.54;99626.16;10337881;28;20056;-62
2023/12/24 02:42:59;;;;;;;1.17;0.10;;;;;;;10.32;89.28;99608.38;10342034;28;20086;-62
2023/12/24 02:48:00;;;;;;;0.43;0.10;;;;;;;10.32;88.86;99620.84;10343240;28;20068;-61
2023/12/24 02:53:05;;;;;;;0.30;0.10;;;;;;;10.36;88.99;99617.81;10338820;28;20045;-61
2023/12/24 02:58:06;;;;;;;1.30;0.20;;;;;;;10.43;89.13;99618.06;10341864;28;20108;-59
2023/12/24 03:03:07;;;;;;;1.25;0.30;;;;;;;10.42;88.84;99611.09;10345188;28;20046;-61
2023/12/24 03:08:09;;;;;;;0.50;0.17;;;;;;;10.41;89.49;99609.41;10344093;28;20132;-62
2023/12/24 03:13:11;;;;;;;1.40;0.20;;;;;;;10.30;89.85;99597.03;10338819;28;20049;-61
2023/12/24 03:18:12;;;;;;;0.77;0.28;;;;;;;10.25;89.79;99600.13;10343533;28;20081;-61
2023/12/24 03:23:13;;;;;;;1.08;0.57;;;;;;;10.27;89.66;99582.19;10339161;28;20183;-63
2023/12/24 03:28:15;;;;;;;0.90;0.40;;;;;;;10.31;89.64;99560.63;10334981;28;20728;-62
2023/12/24 03:33:17;;;;;;;2.03;0.50;;;;;;;10.28;88.52;99540.44;10348850;28;20057;-61
2023/12/24 03:38:20;;;;;;;1.23;0.22;;;;;;;10.29;87.29;99528.00;10344872;28;20175;-60
2023/12/24 03:43:22;;;;;;;1.27;0.30;;;;;;;10.32;86.78;99517.09;10337424;28;20060;-62
2023/12/24 03:48:23;;;;;;;1.17;0.50;;;;;;;10.31;86.28;99510.91;10337718;28;20141;-62
2023/12/24 03:53:25;;;;;;;0.50;0.30;;;;;;;10.17;86.58;99495.38;10338596;28;20069;-61
2023/12/24 03:58:26;;;;;;;1.58;0.50;;;;;;;10.21;88.90;99545.50;10335728;28;20053;-62
2023/12/24 04:03:27;;;;;;;2.30;0.22;;;;;;;10.12;90.21;99535.69;10340163;28;20083;-61
2023/12/24 04:08:31;;;;;;;0.83;0.30;;;;;;;10.11;90.80;99518.06;10343137;28;20141;-63
2023/12/24 04:13:33;;;;;;;0.57;0.15;;;;;;;10.08;91.25;99513.84;10351286;28;20393;-61
2023/12/24 04:18:35;;;;;;;0.55;0.20;;;;;;;10.13;90.35;99517.91;10343455;28;20107;-63
2023/12/24 04:23:36;;;;;;;1.08;0.20;;;;;;;10.01;90.26;99501.25;10352607;28;20049;-62
2023/12/24 04:28:39;;;;;;;0.57;0.13;;;;;;;10.13;89.78;99509.94;10345232;28;20106;-62
2023/12/24 04:33:43;;;;;;;0.35;0.10;;;;;;;10.14;89.46;99512.47;10350407;28;20061;-61
2023/12/24 04:38:45;;;;;;;1.30;0.20;;;;;;;10.15;89.71;99514.16;10345434;28;20459;-60
2023/12/24 04:43:46;;;;;;;0.55;0.17;;;;;;;10.15;89.76;99503.50;10348166;28;20056;-62
2023/12/24 04:48:48;;;;;;;2.50;0.20;;;;;;;10.04;90.05;99491.19;10343147;28;20439;-60
2023/12/24 04:53:49;;;;;;;3.03;1.00;;;;;;;10.10;90.35;99489.78;10344381;28;20053;-62
2023/12/24 04:58:51;;;;;;;0.30;0.30;;;;;;;10.16;90.19;99491.88;10344818;28;20050;-62
2023/12/24 05:03:52;;;;;;;1.20;0.20;;;;;;;10.16;90.44;99473.25;10345847;28;20053;-62
2023/12/24 05:08:54;;;;;;;0.45;0.20;;;;;;;10.12;91.26;99463.91;10345454;28;20065;-62
2023/12/24 05:13:59;;;;;;;1.58;0.30;;;;;;;10.12;92.71;99479.00;10346325;28;20216;-63
2023/12/24 05:19:01;;;;;;;0.75;0.38;;;;;;;10.09;95.05;99480.97;10349279;28;20409;-64
2023/12/24 05:24:03;;;;;;;0.80;0.20;;;;;;;10.06;97.51;99475.09;10331160;28;20698;-63
2023/12/24 05:29:04;;;;;;;1.80;0.77;;;;;;;9.90;98.17;99468.50;10344577;28;20058;-60
2023/12/24 05:34:06;;;;;;;0.55;0.13;;;;;;;9.97;99.07;99484.75;10344251;28;20055;-59
2023/12/24 05:39:11;;;;;;;0.15;0.03;;;;;;;9.95;100.00;99492.00;10350207;28;20154;-61
2023/12/24 05:44:13;;;;;;;0.32;0.10;;;;;;;9.84;100.00;99490.31;10345389;28;20061;-63
2023/12/24 05:49:14;;;;;;;0.90;0.47;;;;;;;9.70;100.00;99486.22;10341208;28;20064;-64
2023/12/24 05:54:15;;;;;;;0.68;0.50;;;;;;;9.76;100.00;99500.81;10344541;28;20140;-60
2023/12/24 05:59:17;;;;;;;0.30;0.20;;;;;;;9.70;100.00;99499.53;10345188;28;20056;-59
2023/12/24 06:04:18;;;;;;;0.85;0.30;;;;;;;9.68;100.00;99497.97;10342933;28;20064;-63
2023/12/24 06:09:20;;;;;;;0.68;0.50;;;;;;;9.59;100.00;99477.53;10339514;28;21191;-58
2023/12/24 06:14:21;;;;;;;0.40;0.30;;;;;;;9.63;100.00;99509.00;10338177;28;20125;-60
2023/12/24 06:19:23;;;;;;;0.57;0.40;;;;;;;9.51;100.00;99502.97;10338129;28;20050;-62
2023/12/24 06:24:25;;;;;;;0.60;0.30;;;;;;;9.56;100.00;99486.59;10342753;28;20128;-61
2023/12/24 06:29:26;;;;;;;0.95;0.40;;;;;;;9.60;100.00;99497.81;10342085;28;20048;-60
2023/12/24 06:34:30;;;;;;;0.50;0.40;;;;;;;9.49;100.00;99491.63;10337919;28;20045;-62
2023/12/24 06:39:32;;;;;;;0.50;0.40;;;;;;;9.44;100.00;99509.78;10357672;28;20069;-62
2023/12/24 06:44:33;;;;;;;1.10;0.50;;;;;;;9.41;100.00;99498.59;10332448;28;20140;-61
2023/12/24 06:49:35;;;;;;;0.77;0.40;;;;;;;9.32;100.00;99498.44;10357565;28;20055;-59
2023/12/24 06:54:39;;;;;;;0.60;0.37;;;;;;;9.34;100.00;99504.44;10343331;28;20738;-62
2023/12/24 06:59:40;;;;;;;0.70;0.47;;;;;;;9.35;100.00;99465.44;10342243;28;20166;-60
2023/12/24 07:04:42;;;;;;;0.70;0.70;;;;;;;9.24;100.00;99473.53;10345630;28;20067;-62
2023/12/24 07:09:43;;;;;;;0.80;0.50;;;;;;;9.32;100.00;99490.47;10347229;28;20170;-63
2023/12/24 07:14:46;;;;;;;0.80;0.60;;;;;;;9.35;100.00;99478.72;10340394;28;20200;-63
2023/12/24 07:19:48;;;;;;;1.48;0.60;;;;;;;9.38;100.00;99470.47;10343646;28;20045;-63
2023/12/24 07:24:49;;;;;;;1.08;0.40;;;;;;;9.54;100.00;99483.25;10339592;28;20785;-63
2023/12/24 07:29:51;;;;;;;0.55;0.35;;;;;;;9.49;100.00;99488.97;10338223;28;20069;-63
2023/12/24 07:34:56;;;;;;;1.20;0.30;;;;;;;9.45;100.00;99494.69;10341895;28;20515;-62
2023/12/24 07:39:58;;;;;;;1.00;0.60;;;;;;;9.37;100.00;99498.03;10333371;28;20222;-63
2023/12/24 07:44:59;;;;;;;1.73;0.55;;;;;;;9.40;100.00;99488.94;10343922;28;20798;-63
2023/12/24 07:50:01;;;;;;;0.60;0.40;;;;;;;9.13;100.00;99454.06;10348120;28;20195;-63
2023/12/24 07:55:02;;;;;;;1.35;0.50;;;;;;;9.32;100.00;99485.16;10345449;28;20565;-62
2023/12/24 08:00:08;;;;;;;0.98;0.60;;;;;;;9.46;100.00;99489.25;10346203;28;20514;-61
2023/12/24 08:05:09;;;;;;;0.50;0.40;;;;;;;9.29;100.00;99463.31;10347913;28;20054;-63
2023/12/24 08:10:11;;;;;;;1.40;0.32;;;;;;;9.34;100.00;99482.38;10343137;28;20103;-60
2023/12/24 08:15:13;;;;;;;0.40;0.20;;;;;;;9.43;100.00;99475.38;10335695;28;20115;-61
2023/12/24 08:20:16;;;;;;;0.77;0.28;;;;;;;9.41;100.00;99467.53;10351008;28;20061;-61
2023/12/24 08:25:18;;;;;;;0.60;0.25;;;;;;;9.49;100.00;99482.84;10344849;28;20161;-61
2023/12/24 08:30:19;;;;;;;0.70;0.35;;;;;;;9.40;100.00;99465.88;10342269;28;20653;-63
2023/12/24 08:35:20;;;;;;;0.40;0.20;;;;;;;9.46;100.00;99472.47;10341724;28;20054;-59
2023/12/24 08:40:23;;;;;;;0.30;0.15;;;;;;;9.56;100.00;99481.28;10344348;28;20065;-63
2023/12/24 08:45:24;;;;;;;0.40;0.20;;;;;;;9.49;100.00;99491.63;10346700;28;20046;-63
2023/12/24 08:50:28;;;;;;;0.10;0.00;;;;;;;9.45;100.00;99486.72;10346166;28;20051;-63
2023/12/24 08:55:29;;;;;;;0.30;0.10;;;;;;;9.42;100.00;99490.50;10342361;28;20563;-63
2023/12/24 09:00:31;;;;;;;0.35;0.10;;;;;;;9.44;100.00;99491.19;10346132;28;20049;-61
2023/12/24 09:05:34;;;;;;;0.30;0.00;;;;;;;9.43;100.00;99492.19;10339869;28;20483;-63
2023/12/24 09:10:36;;;;;;;0.20;0.10;;;;;;;9.57;100.00;99468.88;10343148;28;20057;-63
2023/12/24 09:15:39;;;;;;;0.68;0.20;;;;;;;9.57;100.00;99479.50;10344321;28;20060;-62
2023/12/24 09:20:40;;;;;;;1.23;0.35;;;;;;;9.53;100.00;99476.25;10332983;28;20109;-63
2023/12/24 09:25:41;;;;;;;0.30;0.10;;;;;;;9.63;100.00;99492.22;10338239;28;20801;-62
2023/12/24 09:30:43;;;;;;;0.77;0.10;;;;;;;9.67;100.00;99472.41;10338868;28;20465;-61
2023/12/24 09:35:45;;;;;;;0.38;0.10;;;;;;;9.68;100.00;99474.06;10332647;28;20049;-62
2023/12/24 09:40:50;;;;;;;1.25;0.10;;;;;;;9.69;100.00;99473.09;10342159;28;21260;-62
2023/12/24 09:45:55;;;;;;;0.60;0.20;;;;;;;9.72;100.00;99470.97;10334835;28;20281;-63
2023/12/24 09:50:56;;;;;;;0.65;0.40;;;;;;;9.85;100.00;99486.69;10337047;28;20129;-61
2023/12/24 09:55:58;;;;;;;0.17;0.08;;;;;;;9.87;100.00;99490.03;10332777;28;20062;-62
2023/12/24 10:01:01;;;;;;;0.20;0.00;;;;;;;9.88;100.00;99483.75;10349755;28;20279;-60
2023/12/24 10:06:07;;;;;;;0.40;0.10;;;;;;;9.81;100.00;99469.31;10348860;28;20668;-60
2023/12/24 10:11:16;;;;;;;0.30;0.10;;;;;;;9.91;100.00;99469.34;10334680;28;20966;-62
2023/12/24 10:16:21;;;;;;;0.38;0.10;;;;;;;9.95;100.00;99480.53;10336170;28;20058;-62
2023/12/24 10:21:24;;;;;;;0.73;0.00;;;;;;;9.96;100.00;99466.28;10331345;28;20049;-60
2023/12/24 10:26:26;;;;;;;0.35;0.08;;;;;;;10.02;100.00;99479.84;10333085;28;20057;-63
2023/12/24 10:31:27;;;;;;;0.32;0.32;;;;;;;10.03;100.00;99467.41;10337081;28;20138;-61
2023/12/24 10:36:30;;;;;;;0.00;0.00;;;;;;;10.02;100.00;99461.22;10332785;28;20191;-62
2023/12/24 10:41:31;;;;;;;0.28;0.08;;;;;;;10.07;100.00;99458.13;10342922;28;20313;-61
2023/12/24 10:46:35;;;;;;;1.55;0.10;;;;;;;10.11;100.00;99435.63;10318353;28;20479;-63
2023/12/24 10:51:39;;;;;;;1.27;0.20;;;;;;;10.29;100.00;99441.06;10313348;28;20065;-62
2023/12/24 10:57:00;;;;;;;0.40;0.00;;;;;;;10.37;100.00;99443.91;10340130;28;20140;-62
2023/12/24 11:02:09;;;;;;;1.05;0.00;;;;;;;10.50;100.00;99432.13;10325831;28;20050;-61
2023/12/24 11:07:33;;;;;;;0.22;0.03;;;;;;;10.60;100.00;99427.63;10326406;28;20064;-62
2023/12/24 11:12:40;;;;;;;0.10;0.00;;;;;;;10.58;100.00;99430.41;10330212;28;20706;-62
2023/12/24 11:17:48;;;;;;;0.20;0.20;;;;;;;10.56;100.00;99421.72;10340565;28;20128;-61
2023/12/24 11:23:04;;;;;;;1.10;0.30;;;;;;;10.58;100.00;99400.28;10341554;28;20169;-63
2023/12/24 11:28:36;;;;;;;1.27;0.90;;;;;;;10.63;100.00;99386.53;10336369;28;20052;-62
2023/12/24 11:33:47;;;;;;;3.17;2.90;;;;;;;10.58;100.00;99385.19;10332643;28;20050;-63
2023/12/24 11:38:59;;;;;;;0.32;0.20;;;;;;;10.50;100.00;99374.41;10323728;28;20061;-61
2023/12/24 11:44:07;;;;;;;0.17;0.10;;;;;;;10.60;100.00;99377.06;10335662;28;20048;-63
2023/12/24 11:49:11;;;;;;;0.08;0.00;;;;;;;10.63;100.00;99395.38;10336669;28;20064;-63
2023/12/24 11:54:18;;;;;;;0.75;0.00;;;;;;;10.58;100.00;99365.69;10335277;28;20273;-62
2023/12/24 11:59:20;;;;;;;0.20;0.03;;;;;;;10.69;100.00;99364.66;10326859;28;20521;-64
2023/12/24 12:04:21;;;;;;;0.10;0.00;;;;;;;10.66;100.00;99335.69;10335225;28;20049;-62
2023/12/24 12:09:23;;;;;;;0.22;0.00;;;;;;;10.62;100.00;99348.47;10335047;28;20128;-59
2023/12/24 12:14:25;;;;;;;0.10;0.00;;;;;;;10.66;100.00;99319.72;10335675;28;20046;-61
2023/12/24 12:19:27;;;;;;;0.10;0.00;;;;;;;10.71;100.00;99333.44;10344655;28;20450;-62
2023/12/24 12:24:28;;;;;;;0.75;0.00;;;;;;;10.70;100.00;99324.59;10334792;28;20067;-62
2023/12/24 12:29:31;;;;;;;0.10;0.00;;;;;;;10.74;100.00;99339.28;10337830;28;20135;-62
2023/12/24 12:34:34;;;;;;;0.13;0.00;;;;;;;10.75;100.00;99326.84;10344664;28;20041;-61
2023/12/24 12:39:36;;;;;;;0.25;0.00;;;;;;;10.84;100.00;99323.28;10351668;28;20436;-62
2023/12/24 12:44:37;;;;;;;0.28;0.00;;;;;;;10.69;100.00;99306.09;10346495;28;20045;-63
2023/12/24 12:49:41;;;;;;;0.30;0.00;;;;;;;10.75;100.00;99324.19;10343524;28;20553;-62
2023/12/24 12:54:43;;;;;;;0.10;0.00;;;;;;;10.86;100.00;99339.94;10339418;28;20630;-63
2023/12/24 12:59:44;;;;;;;0.57;0.10;;;;;;;10.79;100.00;99330.88;10345550;28;20079;-60
2023/12/24 13:04:46;;;;;;;0.20;0.00;;;;;;;10.85;100.00;99356.91;10337567;28;20045;-61
2023/12/24 13:09:49;;;;;;;0.20;0.00;;;;;;;10.83;100.00;99350.88;10342700;28;20500;-61
2023/12/24 13:14:58;;;;;;;0.30;0.17;;;;;;;10.84;100.00;99346.41;10349005;28;21036;-61
2023/12/24 13:19:59;;;;;;;0.45;0.32;;;;;;;10.65;100.00;99307.41;10342697;28;20085;-63
2023/12/24 13:25:04;;;;;;;0.20;0.00;;;;;;;10.81;100.00;99306.75;10345985;28;20062;-60
2023/12/24 13:30:06;;;;;;;0.17;0.00;;;;;;;10.91;100.00;99329.72;10346442;28;20054;-60
2023/12/24 13:35:09;;;;;;;0.50;0.10;;;;;;;10.96;100.00;99318.59;10345175;28;20046;-63
2023/12/24 13:40:10;;;;;;;0.30;0.05;;;;;;;10.92;100.00;99326.03;10341477;28;20058;-62
2023/12/24 13:45:17;;;;;;;1.65;0.10;;;;;;;10.96;100.00;99334.59;10345656;28;20132;-62
2023/12/24 13:50:20;;;;;;;0.20;0.00;;;;;;;10.88;100.00;99340.63;10344746;28;20058;-63
2023/12/24 13:55:22;;;;;;;0.13;0.00;;;;;;;10.87;100.00;99343.44;10341947;28;20053;-61
2023/12/24 14:00:26;;;;;;;0.32;0.10;;;;;;;10.86;100.00;99353.25;10342604;28;20045;-63
2023/12/24 14:05:27;;;;;;;0.93;0.17;;;;;;;10.81;100.00;99352.00;10346575;28;20101;-61
2023/12/24 14:10:29;;;;;;;0.40;0.10;;;;;;;10.49;100.00;99329.31;10340349;28;20046;-61
2023/12/24 14:15:30;;;;;;;0.60;0.17;;;;;;;10.53;100.00;99347.50;10342375;28;20678;-63
2023/12/24 14:20:34;;;;;;;0.28;0.03;;;;;;;10.36;100.00;99377.53;10336738;28;20049;-64
2023/12/24 14:25:36;;;;;;;0.52;0.20;;;;;;;10.32;100.00;99370.78;10344206;28;20057;-63
2023/12/24 14:30:37;;;;;;;0.50;0.10;;;;;;;10.36;100.00;99364.25;10342570;28;20054;-62
2023/12/24 14:35:39;;;;;;;1.17;0.10;;;;;;;10.35;100.00;99365.22;10338737;28;20049;-62
2023/12/24 14:40:41;;;;;;;1.58;1.30;;;;;;;10.29;100.00;99373.75;10340138;28;20052;-62
2023/12/24 14:45:43;;;;;;;0.40;0.15;;;;;;;10.25;100.00;99360.72;10338980;28;20711;-61
2023/12/24 14:50:46;;;;;;;0.45;0.20;;;;;;;10.24;100.00;99360.88;10337171;28;20057;-64
2023/12/24 14:55:48;;;;;;;1.00;0.52;;;;;;;10.14;100.00;99352.91;10345414;28;20053;-59
2023/12/24 15:00:50;;;;;;;0.80;0.25;;;;;;;10.22;100.00;99363.66;10346072;28;20045;-62
2023/12/24 15:05:51;;;;;;;0.40;0.25;;;;;;;10.22;100.00;99363.66;10340806;28;20105;-63
2023/12/24 15:10:53;;;;;;;1.20;0.57;;;;;;;10.17;100.00;99384.53;10339012;28;20064;-62
2023/12/24 15:15:56;;;;;;;0.38;0.20;;;;;;;10.14;100.00;99366.19;10333118;28;20142;-62
2023/12/24 15:20:57;;;;;;;0.80;0.20;;;;;;;10.18;100.00;99375.56;10332656;28;20141;-62
2023/12/24 15:26:04;;;;;;;0.98;0.20;;;;;;;10.18;100.00;99380.88;10348694;28;20183;-61
2023/12/24 15:31:05;;;;;;;0.40;0.20;;;;;;;10.25;100.00;99387.31;10342158;28;20063;-63
2023/12/24 15:36:10;;;;;;;0.25;0.20;;;;;;;10.26;100.00;99375.69;10313287;28;20049;-62
2023/12/24 15:41:15;;;;;;;0.70;0.10;;;;;;;9.86;100.00;99302.31;10334685;28;20437;-64
2023/12/24 15:46:19;;;;;;;0.50;0.30;;;;;;;10.30;100.00;99368.28;10324609;28;20054;-64
2023/12/24 15:51:21;;;;;;;0.57;0.22;;;;;;;10.34;100.00;99368.84;10332062;28;20096;-62
2023/12/24 15:56:22;;;;;;;0.75;0.40;;;;;;;10.37;100.00;99365.91;10341936;28;20154;-62
2023/12/24 16:01:24;;;;;;;1.25;0.55;;;;;;;10.32;100.00;99352.16;10333064;28;20054;-64
2023/12/24 16:06:27;;;;;;;1.13;0.47;;;;;;;10.33;100.00;99361.81;10326677;28;20533;-63
2023/12/24 16:11:30;;;;;;;4.60;2.33;;;;;;;10.42;100.00;99379.63;10339444;28;20476;-64
2023/12/24 16:16:33;;;;;;;5.13;3.13;;;;;;;10.45;100.00;99368.69;10326955;28;20496;-63
2023/12/24 16:21:39;;;;;;;1.85;0.93;;;;;;;10.48;100.00;99365.75;10341272;28;20068;-63
2023/12/24 16:26:41;;;;;;;2.50;1.80;;;;;;;10.44;100.00;99372.31;10342682;28;20053;-64
2023/12/24 16:31:42;;;;;;;0.60;0.40;;;;;;;10.51;100.00;99381.41;10340648;28;20057;-60
2023/12/24 16:36:45;;;;;;;1.05;0.30;;;;;;;10.52;100.00;99363.63;10335813;28;20058;-62
2023/12/24 16:41:47;;;;;;;0.70;0.10;;;;;;;10.54;100.00;99357.19;10342072;28;20531;-62
2023/12/24 16:46:49;;;;;;;0.52;0.40;;;;;;;10.39;100.00;99354.13;10340892;28;20046;-63
2023/12/24 16:51:51;;;;;;;0.80;0.43;;;;;;;10.55;100.00;99388.13;10336973;28;20056;-62
2023/12/24 16:56:53;;;;;;;1.33;0.60;;;;;;;10.53;100.00;99374.13;10340864;28;20541;-63
2023/12/24 17:01:54;;;;;;;1.88;1.08;;;;;;;10.50;100.00;99366.41;10341616;28;20192;-62
2023/12/24 17:06:58;;;;;;;3.35;1.23;;;;;;;10.48;100.00;99348.91;10329925;28;20071;-63
2023/12/24 17:12:00;;;;;;;0.93;0.47;;;;;;;10.46;100.00;99341.09;10338762;28;20060;-63
2023/12/24 17:17:02;;;;;;;1.42;0.80;;;;;;;10.55;100.00;99372.16;10339921;28;20135;-63
2023/12/24 17:22:03;;;;;;;1.92;0.40;;;;;;;10.48;100.00;99371.06;10339371;28;20065;-62
2023/12/24 17:27:05;;;;;;;1.52;1.20;;;;;;;10.48;100.00;99373.72;10341303;28;20061;-63
2023/12/24 17:32:07;;;;;;;1.50;0.30;;;;;;;10.57;100.00;99380.00;10340639;28;20192;-62
2023/12/24 17:37:09;;;;;;;0.40;0.30;;;;;;;10.55;100.00;99356.19;10340038;28;20045;-62
2023/12/24 17:42:11;;;;;;;0.70;0.40;;;;;;;10.59;100.00;99365.53;10342115;28;20053;-62
2023/12/24 17:47:15;;;;;;;0.90;0.40;;;;;;;10.64;100.00;99364.28;10342821;28;20054;-63
2023/12/24 17:52:17;;;;;;;0.82;0.30;;;;;;;10.63;100.00;99378.56;10340023;28;21353;-62
2023/12/24 17:57:19;;;;;;;1.48;0.65;;;;;;;10.61;100.00;99365.41;10340967;28;20053;-62
2023/12/24 18:02:21;;;;;;;0.68;0.30;;;;;;;10.61;100.00;99392.00;10346796;28;20049;-62
2023/12/24 18:07:23;;;;;;;1.30;0.70;;;;;;;10.67;100.00;99387.94;10337993;28;20053;-64
2023/12/24 18:12:24;;;;;;;1.00;0.57;;;;;;;10.69;100.00;99380.63;10341129;28;20997;-62
2023/12/24 18:17:26;;;;;;;0.73;0.30;;;;;;;10.68;100.00;99392.28;10337366;28;20049;-61
2023/12/24 18:22:27;;;;;;;0.63;0.30;;;;;;;10.65;100.00;99404.06;10337205;28;20046;-62
2023/12/24 18:27:29;;;;;;;2.58;0.95;;;;;;;10.61;100.00;99405.31;10340377;28;20375;-66
2023/12/24 18:32:30;;;;;;;1.63;0.45;;;;;;;10.70;100.00;99406.28;10351248;28;20085;-62
2023/12/24 18:37:32;;;;;;;0.82;0.40;;;;;;;10.68;100.00;99397.63;10338193;28;20050;-64
2023/12/24 18:42:33;;;;;;;1.20;0.57;;;;;;;10.68;100.00;99390.47;10343082;28;20057;-64
2023/12/24 18:47:34;;;;;;;2.25;0.65;;;;;;;10.63;100.00;99394.53;10343395;28;20050;-64
2023/12/24 18:52:36;;;;;;;2.05;0.40;;;;;;;10.61;100.00;99390.22;10341150;28;20056;-61
2023/12/24 18:57:37;;;;;;;1.92;0.88;;;;;;;10.70;100.00;99400.97;10339931;28;20058;-62
2023/12/24 19:02:40;;;;;;;2.05;0.80;;;;;;;10.70;100.00;99391.13;10340829;28;20490;-62
2023/12/24 19:07:43;;;;;;;2.17;0.80;;;;;;;10.73;100.00;99400.66;10347917;28;20512;-63
2023/12/24 19:12:44;;;;;;;3.42;0.93;;;;;;;10.69;100.00;99407.25;10337566;28;20061;-63
2023/12/24 19:17:46;;;;;;;3.03;0.90;;;;;;;10.75;100.00;99417.34;10340288;28;20131;-63
2023/12/24 19:22:47;;;;;;;2.85;1.15;;;;;;;10.75;100.00;99407.53;10321092;28;20077;-63
2023/12/24 19:27:49;;;;;;;7.25;5.10;;;;;;;10.75;100.00;99415.50;10341517;28;20061;-63
2023/12/24 19:32:50;;;;;;;11.48;9.15;;;;;;;10.71;100.00;99394.66;10348056;28;20091;-62
2023/12/24 19:37:54;;;;;;;5.37;3.33;;;;;;;10.82;100.00;99415.75;10343566;28;20061;-62
2023/12/24 19:42:56;;;;;;;4.72;1.42;;;;;;;10.83;100.00;99419.28;10352798;28;20304;-63
2023/12/24 19:47:58;;;;;;;3.78;1.05;;;;;;;10.88;100.00;99425.00;10351058;28;20061;-62
2023/12/24 19:53:00;;;;;;;2.83;1.55;;;;;;;10.87;100.00;99432.16;10344284;28;20054;-64
2023/12/24 19:58:01;;;;;;;2.60;1.13;;;;;;;10.87;100.00;99456.13;10348682;28;20503;-64
2023/12/24 20:03:03;;;;;;;2.58;1.10;;;;;;;10.88;100.00;99468.41;10349266;28;20057;-62
2023/12/24 20:08:05;;;;;;;2.67;0.75;;;;;;;10.84;100.00;99448.41;10350143;28;20165;-63
2023/12/24 20:13:07;;;;;;;3.33;0.80;;;;;;;10.92;100.00;99467.16;10356494;28;20164;-63
2023/12/24 20:18:08;;;;;;;3.70;1.17;;;;;;;10.96;99.02;99489.03;10356471;28;20061;-63
2023/12/24 20:23:10;;;;;;;4.47;1.25;;;;;;;10.99;98.37;99469.22;10347317;28;20057;-63
2023/12/24 20:28:11;;;;;;;3.75;0.80;;;;;;;10.98;97.94;99441.78;10347126;28;20068;-64
2023/12/24 20:33:14;;;;;;;2.17;0.77;;;;;;;11.05;97.20;99469.50;10346965;28;20578;-65
2023/12/24 20:38:20;;;;;;;3.30;1.00;;;;;;;11.10;97.26;99458.41;10345991;28;20081;-66
2023/12/24 20:43:21;;;;;;;4.60;1.48;;;;;;;11.11;95.78;99457.44;10347795;28;20137;-61
2023/12/24 20:48:23;;;;;;;4.10;1.00;;;;;;;11.06;94.70;99459.69;10346990;28;20045;-63
2023/12/24 20:53:24;;;;;;;2.85;1.30;;;;;;;11.00;94.72;99449.63;10341683;28;20060;-63
2023/12/24 20:58:28;;;;;;;4.78;1.23;;;;;;;11.03;94.83;99465.31;10357225;28;20056;-62
2023/12/24 21:03:33;;;;;;;3.65;1.10;;;;;;;11.04;94.81;99461.66;10344271;28;21223;-62
2023/12/24 21:08:34;;;;;;;2.97;1.10;;;;;;;11.04;94.32;99459.00;10342741;28;20115;-63
2023/12/24 21:13:36;;;;;;;3.00;0.80;;;;;;;11.06;93.86;99473.81;10345888;28;20065;-64
2023/12/24 21:18:40;;;;;;;2.97;0.97;;;;;;;11.07;94.48;99464.03;10334202;28;20533;-62
2023/12/24 21:23:43;;;;;;;7.15;2.20;;;;;;;11.10;93.57;99469.06;10354932;28;20133;-62
2023/12/24 21:28:45;;;;;;;3.58;1.17;;;;;;;11.05;93.40;99474.84;10343667;28;20071;-61
2023/12/24 21:33:50;;;;;;;4.90;1.67;;;;;;;11.06;94.53;99470.34;10356794;28;20699;-61
2023/12/24 21:38:52;;;;;;;4.03;2.72;;;;;;;11.09;94.10;99481.56;10366151;28;20219;-62
2023/12/24 21:43:54;;;;;;;4.03;1.10;;;;;;;11.08;93.39;99492.31;10345004;28;20056;-61
2023/12/24 21:48:56;;;;;;;3.63;1.20;;;;;;;11.01;92.64;99464.63;10344475;28;20108;-63
2023/12/24 21:53:58;;;;;;;2.92;1.13;;;;;;;11.05;92.55;99463.31;10339791;28;20595;-61
2023/12/24 21:58:59;;;;;;;3.55;1.00;;;;;;;11.05;92.32;99473.97;10344997;28;20058;-63
2023/12/24 22:04:01;;;;;;;5.07;1.23;;;;;;;11.07;92.54;99493.34;10357229;28;20145;-61
2023/12/24 22:09:03;;;;;;;4.25;1.90;;;;;;;11.03;92.83;99510.56;10342886;28;20057;-63
2023/12/24 22:14:04;;;;;;;6.43;1.13;;;;;;;11.03;92.89;99518.56;10341949;28;20056;-61
2023/12/24 22:19:05;;;;;;;5.00;1.33;;;;;;;11.08;92.20;99521.63;10356407;28;20588;-63
2023/12/24 22:24:07;;;;;;;2.75;1.30;;;;;;;11.06;91.89;99527.09;10340276;28;20041;-62
2023/12/24 22:29:08;;;;;;;2.58;0.95;;;;;;;11.14;91.48;99539.72;10343897;28;20670;-63
2023/12/24 22:34:10;;;;;;;3.50;0.77;;;;;;;11.09;91.45;99528.63;10342265;28;20619;-62
2023/12/24 22:39:12;;;;;;;4.30;1.42;;;;;;;11.13;91.16;99519.38;10342429;28;20072;-61
2023/12/24 22:44:13;;;;;;;3.05;1.27;;;;;;;11.10;90.97;99522.34;10332253;28;20053;-63
2023/12/24 22:49:15;;;;;;;4.32;1.20;;;;;;;11.13;91.13;99514.06;10332428;28;20051;-63
2023/12/24 22:54:16;;;;;;;4.80;1.30;;;;;;;11.15;91.38;99517.41;10354522;28;20058;-61
2023/12/24 22:59:19;;;;;;;2.88;1.05;;;;;;;11.12;91.89;99523.88;10330225;28;20055;-63
2023/12/24 23:04:20;;;;;;;1.75;0.80;;;;;;;11.12;91.28;99528.34;10344153;28;20049;-62
2023/12/24 23:09:22;;;;;;;2.38;1.25;;;;;;;11.16;91.92;99534.25;10343495;28;20567;-62
2023/12/24 23:14:23;;;;;;;4.60;1.33;;;;;;;11.21;91.40;99527.47;10338545;28;20057;-62
2023/12/24 23:19:25;;;;;;;3.45;0.90;;;;;;;11.12;91.69;99525.69;10339904;28;20041;-60